Hauptseite
METAR-TAF:

METAR-TAF

Flughäfen :

Flughafen Tunis

Tunis, Tunesien

Breite: 36-50N, Länge: 010-14E, Höhe: 3 m

Beobachtung

Neuester Wetterbericht von vor 22 Minuten, um 01:00 UTC
Windstille
Temperatur 18°C
Luftfeuchtigkeit 94%
Luftdruck 1009 hPa
Sichtweite 10 km oder mehr
Leicht bewölkt in der Höhe von 2600 ft

METAR: DTTA 190100Z 00000KT 9999 FEW026 18/17 Q1009 NOSIG

Zeit: 02:22 (01:22 UTC)

Prognose

Neuester Wetterbericht von vor 2 Stunden und 22 Minuten, um 23:00 UTC
Gültige Prognose vom 19 um 00 UTC bis 19 um 24 UTC
Wind 4 kt aus Nordwest
Sichtweite 10 km oder mehr
Leicht bewölkt in der Höhe von 2300 ft
Wahrscheinlichkeit 30%
vom 19 um 04 UTC bis 19 um 07 UTC
Sichtweite: 4000 m
feuchter Dunst

TAF: DTTA 182300Z 1900/1924 31004KT 9999 FEW023 PROB30 1904/1907 4000 BR

Wetterbeobachtungen und Prognosen von mehr als 4000 Flughäfen (METAR und TAF Bericht).

Die verfügbaren Stationen werden durch gelbe und rote Markierungen auf der Karte dargestellt.

Führen Sie die Maus auf sie, um den Namen der Station zu sehen.

Darauf klicken, um die Beobachtung von Wetterbeobachtungen und Prognosen zu sehen.

Um die Karte zu ändern : klicken Sie auf den grünen Tasten mit einem schwarzen Kreuz Zum Vergrößern, auf den grünen Button mit einem Gedankenstrich zu verkleinern, oder auf die grünen Pfeile für benachbarte Karten.


METAR-TAF: